sensor_id;sensor_type;location;lat;lon;timestamp;P1;durP1;ratioP1;P2;durP2;ratioP2
17852;SDS011;9052;53.494;14.376;2023-12-20T00:00:59;2.40;;;0.83;;
17852;SDS011;9052;53.494;14.376;2023-12-20T00:03:26;0.70;;;0.70;;
17852;SDS011;9052;53.494;14.376;2023-12-20T00:05:54;2.33;;;0.67;;
17852;SDS011;9052;53.494;14.376;2023-12-20T00:08:21;1.60;;;0.60;;
17852;SDS011;9052;53.494;14.376;2023-12-20T00:10:48;1.60;;;0.77;;
17852;SDS011;9052;53.494;14.376;2023-12-20T00:13:15;1.67;;;1.30;;
17852;SDS011;9052;53.494;14.376;2023-12-20T00:15:42;1.30;;;0.77;;
17852;SDS011;9052;53.494;14.376;2023-12-20T00:18:09;5.90;;;1.00;;
17852;SDS011;9052;53.494;14.376;2023-12-20T00:20:36;4.03;;;1.40;;
17852;SDS011;9052;53.494;14.376;2023-12-20T00:23:04;1.43;;;1.33;;
17852;SDS011;9052;53.494;14.376;2023-12-20T00:25:33;1.10;;;1.10;;
17852;SDS011;9052;53.494;14.376;2023-12-20T00:28:00;1.57;;;1.47;;
17852;SDS011;9052;53.494;14.376;2023-12-20T00:30:27;4.30;;;2.27;;
17852;SDS011;9052;53.494;14.376;2023-12-20T00:32:55;1.77;;;1.67;;
17852;SDS011;9052;53.494;14.376;2023-12-20T00:35:22;1.73;;;1.53;;
17852;SDS011;9052;53.494;14.376;2023-12-20T00:37:49;5.43;;;1.80;;
17852;SDS011;9052;53.494;14.376;2023-12-20T00:40:17;1.70;;;1.60;;
17852;SDS011;9052;53.494;14.376;2023-12-20T00:42:44;3.77;;;1.90;;
17852;SDS011;9052;53.494;14.376;2023-12-20T00:45:12;3.90;;;2.70;;
17852;SDS011;9052;53.494;14.376;2023-12-20T00:47:39;4.30;;;2.37;;
17852;SDS011;9052;53.494;14.376;2023-12-20T00:50:07;4.47;;;2.37;;
17852;SDS011;9052;53.494;14.376;2023-12-20T00:52:35;3.07;;;2.07;;
17852;SDS011;9052;53.494;14.376;2023-12-20T00:55:02;2.60;;;2.33;;
17852;SDS011;9052;53.494;14.376;2023-12-20T00:57:31;11.93;;;2.40;;
17852;SDS011;9052;53.494;14.376;2023-12-20T00:59:58;2.70;;;2.50;;
17852;SDS011;9052;53.494;14.376;2023-12-20T01:02:25;5.50;;;2.60;;
17852;SDS011;9052;53.494;14.376;2023-12-20T01:04:52;6.00;;;2.40;;
17852;SDS011;9052;53.494;14.376;2023-12-20T01:07:19;3.10;;;3.00;;
17852;SDS011;9052;53.494;14.376;2023-12-20T01:09:46;6.60;;;2.90;;
17852;SDS011;9052;53.494;14.376;2023-12-20T01:12:13;4.53;;;3.63;;
17852;SDS011;9052;53.494;14.376;2023-12-20T01:14:42;12.23;;;3.33;;
17852;SDS011;9052;53.494;14.376;2023-12-20T01:17:09;2.40;;;2.30;;
17852;SDS011;9052;53.494;14.376;2023-12-20T01:19:36;2.67;;;2.47;;
17852;SDS011;9052;53.494;14.376;2023-12-20T01:22:03;2.13;;;2.00;;
17852;SDS011;9052;53.494;14.376;2023-12-20T01:24:30;4.30;;;2.17;;
17852;SDS011;9052;53.494;14.376;2023-12-20T01:26:57;3.17;;;2.90;;
17852;SDS011;9052;53.494;14.376;2023-12-20T01:29:24;3.47;;;3.17;;
17852;SDS011;9052;53.494;14.376;2023-12-20T01:31:53;2.07;;;1.87;;
17852;SDS011;9052;53.494;14.376;2023-12-20T01:34:20;3.27;;;2.87;;
17852;SDS011;9052;53.494;14.376;2023-12-20T01:36:47;3.40;;;1.80;;
17852;SDS011;9052;53.494;14.376;2023-12-20T01:39:14;4.13;;;2.30;;
17852;SDS011;9052;53.494;14.376;2023-12-20T01:41:41;3.97;;;2.73;;
17852;SDS011;9052;53.494;14.376;2023-12-20T01:44:08;3.90;;;2.00;;
17852;SDS011;9052;53.494;14.376;2023-12-20T01:46:35;4.90;;;2.80;;
17852;SDS011;9052;53.494;14.376;2023-12-20T01:49:04;4.63;;;2.03;;
17852;SDS011;9052;53.494;14.376;2023-12-20T01:51:31;3.07;;;1.87;;
17852;SDS011;9052;53.494;14.376;2023-12-20T01:53:58;2.70;;;2.30;;
17852;SDS011;9052;53.494;14.376;2023-12-20T01:56:26;5.40;;;1.57;;
17852;SDS011;9052;53.494;14.376;2023-12-20T01:58:53;8.73;;;1.90;;
17852;SDS011;9052;53.494;14.376;2023-12-20T02:01:20;3.20;;;1.27;;
17852;SDS011;9052;53.494;14.376;2023-12-20T02:03:47;5.07;;;1.90;;
17852;SDS011;9052;53.494;14.376;2023-12-20T02:06:16;2.17;;;1.97;;
17852;SDS011;9052;53.494;14.376;2023-12-20T02:08:45;4.07;;;3.77;;
17852;SDS011;9052;53.494;14.376;2023-12-20T02:11:12;5.70;;;3.20;;
17852;SDS011;9052;53.494;14.376;2023-12-20T02:13:39;8.30;;;5.33;;
17852;SDS011;9052;53.494;14.376;2023-12-20T02:16:06;11.27;;;5.70;;
17852;SDS011;9052;53.494;14.376;2023-12-20T02:18:33;12.03;;;7.90;;
17852;SDS011;9052;53.494;14.376;2023-12-20T02:21:00;23.03;;;12.00;;
17852;SDS011;9052;53.494;14.376;2023-12-20T02:23:28;18.90;;;10.23;;
17852;SDS011;9052;53.494;14.376;2023-12-20T02:25:55;50.20;;;22.10;;
17852;SDS011;9052;53.494;14.376;2023-12-20T02:28:22;63.53;;;27.43;;
17852;SDS011;9052;53.494;14.376;2023-12-20T02:30:49;63.57;;;31.37;;
17852;SDS011;9052;53.494;14.376;2023-12-20T02:33:16;45.37;;;19.73;;
17852;SDS011;9052;53.494;14.376;2023-12-20T02:35:43;11.03;;;8.20;;
17852;SDS011;9052;53.494;14.376;2023-12-20T02:38:10;6.40;;;2.60;;
17852;SDS011;9052;53.494;14.376;2023-12-20T02:40:39;9.83;;;2.60;;
17852;SDS011;9052;53.494;14.376;2023-12-20T02:43:05;4.93;;;1.70;;
17852;SDS011;9052;53.494;14.376;2023-12-20T02:45:32;6.80;;;1.70;;
17852;SDS011;9052;53.494;14.376;2023-12-20T02:47:59;2.83;;;1.80;;
17852;SDS011;9052;53.494;14.376;2023-12-20T02:50:26;13.03;;;2.30;;
17852;SDS011;9052;53.494;14.376;2023-12-20T02:52:53;3.13;;;1.97;;
17852;SDS011;9052;53.494;14.376;2023-12-20T02:55:20;2.03;;;1.93;;
17852;SDS011;9052;53.494;14.376;2023-12-20T02:57:48;9.50;;;2.43;;
17852;SDS011;9052;53.494;14.376;2023-12-20T03:00:15;3.47;;;2.13;;
17852;SDS011;9052;53.494;14.376;2023-12-20T03:02:43;1.80;;;1.70;;
17852;SDS011;9052;53.494;14.376;2023-12-20T03:05:10;3.60;;;1.43;;
17852;SDS011;9052;53.494;14.376;2023-12-20T03:07:37;3.47;;;1.60;;
17852;SDS011;9052;53.494;14.376;2023-12-20T03:10:04;11.93;;;2.00;;
17852;SDS011;9052;53.494;14.376;2023-12-20T03:12:32;3.53;;;1.70;;
17852;SDS011;9052;53.494;14.376;2023-12-20T03:15:01;4.93;;;1.60;;
17852;SDS011;9052;53.494;14.376;2023-12-20T03:17:28;2.70;;;1.37;;
17852;SDS011;9052;53.494;14.376;2023-12-20T03:19:55;11.77;;;1.43;;
17852;SDS011;9052;53.494;14.376;2023-12-20T03:22:22;6.70;;;1.70;;
17852;SDS011;9052;53.494;14.376;2023-12-20T03:24:49;7.60;;;2.63;;
17852;SDS011;9052;53.494;14.376;2023-12-20T03:27:16;2.47;;;1.47;;
17852;SDS011;9052;53.494;14.376;2023-12-20T03:29:42;21.77;;;1.50;;
17852;SDS011;9052;53.494;14.376;2023-12-20T03:32:11;3.60;;;1.93;;
17852;SDS011;9052;53.494;14.376;2023-12-20T03:34:38;1.57;;;1.47;;
17852;SDS011;9052;53.494;14.376;2023-12-20T03:37:05;7.13;;;1.70;;
17852;SDS011;9052;53.494;14.376;2023-12-20T03:39:32;6.37;;;2.40;;
17852;SDS011;9052;53.494;14.376;2023-12-20T03:41:59;8.83;;;2.00;;
17852;SDS011;9052;53.494;14.376;2023-12-20T03:44:26;4.97;;;1.93;;
17852;SDS011;9052;53.494;14.376;2023-12-20T03:46:52;5.90;;;1.53;;
17852;SDS011;9052;53.494;14.376;2023-12-20T03:49:21;9.80;;;2.03;;
17852;SDS011;9052;53.494;14.376;2023-12-20T03:51:48;3.23;;;1.70;;
17852;SDS011;9052;53.494;14.376;2023-12-20T03:54:15;3.03;;;1.47;;
17852;SDS011;9052;53.494;14.376;2023-12-20T03:56:42;6.57;;;1.90;;
17852;SDS011;9052;53.494;14.376;2023-12-20T03:59:09;1.77;;;1.60;;
17852;SDS011;9052;53.494;14.376;2023-12-20T04:01:35;4.60;;;2.00;;
17852;SDS011;9052;53.494;14.376;2023-12-20T04:04:03;6.97;;;1.80;;
17852;SDS011;9052;53.494;14.376;2023-12-20T04:06:31;2.07;;;1.70;;
17852;SDS011;9052;53.494;14.376;2023-12-20T04:08:58;5.30;;;1.53;;
17852;SDS011;9052;53.494;14.376;2023-12-20T04:11:25;8.33;;;2.30;;
17852;SDS011;9052;53.494;14.376;2023-12-20T04:13:52;7.07;;;2.53;;
17852;SDS011;9052;53.494;14.376;2023-12-20T04:16:19;5.03;;;1.53;;
17852;SDS011;9052;53.494;14.376;2023-12-20T04:18:46;5.10;;;1.77;;
17852;SDS011;9052;53.494;14.376;2023-12-20T04:21:13;5.37;;;2.20;;
17852;SDS011;9052;53.494;14.376;2023-12-20T04:23:42;5.20;;;2.00;;
17852;SDS011;9052;53.494;14.376;2023-12-20T04:26:09;4.97;;;1.47;;
17852;SDS011;9052;53.494;14.376;2023-12-20T04:28:35;8.27;;;2.03;;
17852;SDS011;9052;53.494;14.376;2023-12-20T04:31:03;8.03;;;2.07;;
17852;SDS011;9052;53.494;14.376;2023-12-20T04:33:29;4.53;;;2.53;;
17852;SDS011;9052;53.494;14.376;2023-12-20T04:35:57;1.90;;;1.80;;
17852;SDS011;9052;53.494;14.376;2023-12-20T04:38:25;8.93;;;2.57;;
17852;SDS011;9052;53.494;14.376;2023-12-20T04:40:53;6.90;;;1.47;;
17852;SDS011;9052;53.494;14.376;2023-12-20T04:43:20;4.60;;;1.30;;
17852;SDS011;9052;53.494;14.376;2023-12-20T04:45:47;11.03;;;1.93;;
17852;SDS011;9052;53.494;14.376;2023-12-20T04:48:14;10.10;;;1.80;;
17852;SDS011;9052;53.494;14.376;2023-12-20T04:50:41;12.00;;;2.07;;
17852;SDS011;9052;53.494;14.376;2023-12-20T04:53:08;10.63;;;1.53;;
17852;SDS011;9052;53.494;14.376;2023-12-20T04:55:35;2.93;;;1.83;;
17852;SDS011;9052;53.494;14.376;2023-12-20T04:58:05;15.03;;;2.73;;
17852;SDS011;9052;53.494;14.376;2023-12-20T05:00:33;35.60;;;2.17;;
17852;SDS011;9052;53.494;14.376;2023-12-20T05:03:00;13.73;;;2.57;;
17852;SDS011;9052;53.494;14.376;2023-12-20T05:05:27;8.83;;;1.80;;
17852;SDS011;9052;53.494;14.376;2023-12-20T05:07:54;22.77;;;1.83;;
17852;SDS011;9052;53.494;14.376;2023-12-20T05:10:21;4.47;;;1.00;;
17852;SDS011;9052;53.494;14.376;2023-12-20T05:12:48;24.73;;;2.13;;
17852;SDS011;9052;53.494;14.376;2023-12-20T05:15:16;3.30;;;1.43;;
17852;SDS011;9052;53.494;14.376;2023-12-20T05:17:43;12.40;;;2.23;;
17852;SDS011;9052;53.494;14.376;2023-12-20T05:20:10;6.80;;;2.10;;
17852;SDS011;9052;53.494;14.376;2023-12-20T05:22:37;17.87;;;1.70;;
17852;SDS011;9052;53.494;14.376;2023-12-20T05:25:04;11.93;;;1.93;;
17852;SDS011;9052;53.494;14.376;2023-12-20T05:27:32;3.97;;;1.60;;
17852;SDS011;9052;53.494;14.376;2023-12-20T05:29:59;4.40;;;1.33;;
17852;SDS011;9052;53.494;14.376;2023-12-20T05:32:27;2.60;;;1.20;;
17852;SDS011;9052;53.494;14.376;2023-12-20T05:34:54;27.13;;;2.27;;
17852;SDS011;9052;53.494;14.376;2023-12-20T05:37:21;12.90;;;3.17;;
17852;SDS011;9052;53.494;14.376;2023-12-20T05:39:48;19.80;;;2.90;;
17852;SDS011;9052;53.494;14.376;2023-12-20T05:42:15;6.33;;;2.17;;
17852;SDS011;9052;53.494;14.376;2023-12-20T05:44:42;4.10;;;2.37;;
17852;SDS011;9052;53.494;14.376;2023-12-20T05:47:09;18.93;;;3.10;;
17852;SDS011;9052;53.494;14.376;2023-12-20T05:49:37;5.13;;;1.60;;
17852;SDS011;9052;53.494;14.376;2023-12-20T05:52:04;19.83;;;2.10;;
17852;SDS011;9052;53.494;14.376;2023-12-20T05:54:31;15.77;;;3.70;;
17852;SDS011;9052;53.494;14.376;2023-12-20T05:56:59;37.23;;;3.27;;
17852;SDS011;9052;53.494;14.376;2023-12-20T05:59:26;12.03;;;3.50;;
17852;SDS011;9052;53.494;14.376;2023-12-20T06:01:53;11.63;;;2.47;;
17852;SDS011;9052;53.494;14.376;2023-12-20T06:04:22;5.47;;;2.27;;
17852;SDS011;9052;53.494;14.376;2023-12-20T06:06:51;5.77;;;3.10;;
17852;SDS011;9052;53.494;14.376;2023-12-20T06:09:18;12.30;;;2.83;;
17852;SDS011;9052;53.494;14.376;2023-12-20T06:11:45;16.33;;;2.73;;
17852;SDS011;9052;53.494;14.376;2023-12-20T06:14:12;7.97;;;1.90;;
17852;SDS011;9052;53.494;14.376;2023-12-20T06:16:39;8.80;;;3.80;;
17852;SDS011;9052;53.494;14.376;2023-12-20T06:19:06;15.87;;;2.60;;
17852;SDS011;9052;53.494;14.376;2023-12-20T06:21:33;3.73;;;2.07;;
17852;SDS011;9052;53.494;14.376;2023-12-20T06:24:01;19.53;;;2.60;;
17852;SDS011;9052;53.494;14.376;2023-12-20T06:26:28;16.47;;;3.47;;
17852;SDS011;9052;53.494;14.376;2023-12-20T06:28:55;23.80;;;5.10;;
17852;SDS011;9052;53.494;14.376;2023-12-20T06:31:22;30.60;;;3.77;;
17852;SDS011;9052;53.494;14.376;2023-12-20T06:33:49;8.63;;;3.30;;
17852;SDS011;9052;53.494;14.376;2023-12-20T06:36:22;15.83;;;3.20;;
17852;SDS011;9052;53.494;14.376;2023-12-20T06:38:49;15.13;;;3.10;;
17852;SDS011;9052;53.494;14.376;2023-12-20T06:41:18;13.73;;;2.90;;
17852;SDS011;9052;53.494;14.376;2023-12-20T06:43:45;22.20;;;3.17;;
17852;SDS011;9052;53.494;14.376;2023-12-20T06:46:12;19.83;;;3.60;;
17852;SDS011;9052;53.494;14.376;2023-12-20T06:48:39;14.23;;;3.23;;
17852;SDS011;9052;53.494;14.376;2023-12-20T06:51:06;9.93;;;2.87;;
17852;SDS011;9052;53.494;14.376;2023-12-20T06:53:33;7.10;;;2.93;;
17852;SDS011;9052;53.494;14.376;2023-12-20T06:56:00;21.43;;;3.47;;
17852;SDS011;9052;53.494;14.376;2023-12-20T06:58:29;24.63;;;2.90;;
17852;SDS011;9052;53.494;14.376;2023-12-20T07:00:56;25.47;;;3.40;;
17852;SDS011;9052;53.494;14.376;2023-12-20T07:03:23;34.47;;;3.77;;
17852;SDS011;9052;53.494;14.376;2023-12-20T07:05:49;6.60;;;4.20;;
17852;SDS011;9052;53.494;14.376;2023-12-20T07:08:16;5.30;;;2.37;;
17852;SDS011;9052;53.494;14.376;2023-12-20T07:10:44;35.30;;;5.07;;
17852;SDS011;9052;53.494;14.376;2023-12-20T07:13:11;60.20;;;4.70;;
17852;SDS011;9052;53.494;14.376;2023-12-20T07:15:41;13.50;;;3.83;;
17852;SDS011;9052;53.494;14.376;2023-12-20T07:18:08;22.20;;;3.60;;
17852;SDS011;9052;53.494;14.376;2023-12-20T07:20:35;37.37;;;4.23;;
17852;SDS011;9052;53.494;14.376;2023-12-20T07:23:02;11.60;;;3.67;;
17852;SDS011;9052;53.494;14.376;2023-12-20T07:25:29;15.53;;;3.83;;
17852;SDS011;9052;53.494;14.376;2023-12-20T07:27:57;17.17;;;3.50;;
17852;SDS011;9052;53.494;14.376;2023-12-20T07:30:24;20.60;;;3.80;;
17852;SDS011;9052;53.494;14.376;2023-12-20T07:32:53;19.13;;;4.30;;
17852;SDS011;9052;53.494;14.376;2023-12-20T07:35:20;12.67;;;3.67;;
17852;SDS011;9052;53.494;14.376;2023-12-20T07:37:46;11.53;;;4.00;;
17852;SDS011;9052;53.494;14.376;2023-12-20T07:40:13;35.03;;;5.67;;
17852;SDS011;9052;53.494;14.376;2023-12-20T07:42:42;11.43;;;3.53;;
17852;SDS011;9052;53.494;14.376;2023-12-20T07:45:09;16.30;;;3.80;;
17852;SDS011;9052;53.494;14.376;2023-12-20T07:47:37;32.33;;;4.10;;
17852;SDS011;9052;53.494;14.376;2023-12-20T07:50:05;11.40;;;3.53;;
17852;SDS011;9052;53.494;14.376;2023-12-20T07:52:33;23.60;;;5.27;;
17852;SDS011;9052;53.494;14.376;2023-12-20T07:55:00;15.93;;;6.13;;
17852;SDS011;9052;53.494;14.376;2023-12-20T07:57:28;22.83;;;4.50;;
17852;SDS011;9052;53.494;14.376;2023-12-20T07:59:55;19.63;;;4.03;;
17852;SDS011;9052;53.494;14.376;2023-12-20T08:02:22;13.10;;;3.87;;
17852;SDS011;9052;53.494;14.376;2023-12-20T08:04:49;19.33;;;3.40;;
17852;SDS011;9052;53.494;14.376;2023-12-20T08:07:17;12.47;;;2.80;;
17852;SDS011;9052;53.494;14.376;2023-12-20T08:09:44;9.03;;;3.47;;
17852;SDS011;9052;53.494;14.376;2023-12-20T08:12:11;18.07;;;4.03;;
17852;SDS011;9052;53.494;14.376;2023-12-20T08:14:38;15.23;;;3.83;;
17852;SDS011;9052;53.494;14.376;2023-12-20T08:17:05;30.67;;;4.43;;
17852;SDS011;9052;53.494;14.376;2023-12-20T08:19:32;12.97;;;3.80;;
17852;SDS011;9052;53.494;14.376;2023-12-20T08:21:59;28.17;;;4.27;;
17852;SDS011;9052;53.494;14.376;2023-12-20T08:24:27;14.83;;;4.17;;
17852;SDS011;9052;53.494;14.376;2023-12-20T08:26:54;18.43;;;4.23;;
17852;SDS011;9052;53.494;14.376;2023-12-20T08:29:21;30.60;;;4.23;;
17852;SDS011;9052;53.494;14.376;2023-12-20T08:31:51;15.33;;;3.63;;
17852;SDS011;9052;53.494;14.376;2023-12-20T08:34:19;18.73;;;3.50;;
17852;SDS011;9052;53.494;14.376;2023-12-20T08:36:45;16.50;;;3.90;;
17852;SDS011;9052;53.494;14.376;2023-12-20T08:39:12;24.27;;;4.00;;
17852;SDS011;9052;53.494;14.376;2023-12-20T08:41:41;5.17;;;2.87;;
17852;SDS011;9052;53.494;14.376;2023-12-20T08:44:08;40.47;;;3.63;;
17852;SDS011;9052;53.494;14.376;2023-12-20T08:46:35;13.50;;;3.83;;
17852;SDS011;9052;53.494;14.376;2023-12-20T08:49:02;8.77;;;3.13;;
17852;SDS011;9052;53.494;14.376;2023-12-20T08:51:28;31.23;;;3.07;;
17852;SDS011;9052;53.494;14.376;2023-12-20T08:53:55;9.43;;;3.57;;
17852;SDS011;9052;53.494;14.376;2023-12-20T08:56:22;16.23;;;2.03;;
17852;SDS011;9052;53.494;14.376;2023-12-20T08:58:51;11.87;;;4.43;;
17852;SDS011;9052;53.494;14.376;2023-12-20T09:01:18;4.93;;;2.30;;
17852;SDS011;9052;53.494;14.376;2023-12-20T09:03:44;9.13;;;2.80;;
17852;SDS011;9052;53.494;14.376;2023-12-20T09:06:11;4.97;;;2.37;;
17852;SDS011;9052;53.494;14.376;2023-12-20T09:08:38;11.37;;;2.27;;
17852;SDS011;9052;53.494;14.376;2023-12-20T09:11:06;10.40;;;2.13;;
17852;SDS011;9052;53.494;14.376;2023-12-20T09:13:33;6.93;;;2.97;;
17852;SDS011;9052;53.494;14.376;2023-12-20T09:16:02;8.70;;;3.03;;
17852;SDS011;9052;53.494;14.376;2023-12-20T09:18:29;22.97;;;3.40;;
17852;SDS011;9052;53.494;14.376;2023-12-20T09:20:56;19.57;;;3.00;;
17852;SDS011;9052;53.494;14.376;2023-12-20T09:23:25;8.63;;;2.10;;
17852;SDS011;9052;53.494;14.376;2023-12-20T09:25:51;13.83;;;3.23;;
17852;SDS011;9052;53.494;14.376;2023-12-20T09:28:19;4.47;;;2.33;;
17852;SDS011;9052;53.494;14.376;2023-12-20T09:30:46;10.30;;;2.93;;
17852;SDS011;9052;53.494;14.376;2023-12-20T09:33:14;20.53;;;3.40;;
17852;SDS011;9052;53.494;14.376;2023-12-20T09:35:43;8.13;;;2.67;;
17852;SDS011;9052;53.494;14.376;2023-12-20T09:38:10;17.93;;;2.50;;
17852;SDS011;9052;53.494;14.376;2023-12-20T09:40:39;7.43;;;3.57;;
17852;SDS011;9052;53.494;14.376;2023-12-20T09:43:08;14.83;;;3.07;;
17852;SDS011;9052;53.494;14.376;2023-12-20T09:45:38;14.13;;;2.57;;
17852;SDS011;9052;53.494;14.376;2023-12-20T09:48:06;13.30;;;2.70;;
17852;SDS011;9052;53.494;14.376;2023-12-20T09:50:37;12.63;;;2.90;;
17852;SDS011;9052;53.494;14.376;2023-12-20T09:53:04;5.80;;;3.10;;
17852;SDS011;9052;53.494;14.376;2023-12-20T09:55:34;15.67;;;2.90;;
17852;SDS011;9052;53.494;14.376;2023-12-20T09:58:02;9.70;;;2.30;;
17852;SDS011;9052;53.494;14.376;2023-12-20T10:00:31;5.70;;;2.20;;
17852;SDS011;9052;53.494;14.376;2023-12-20T10:02:58;9.33;;;2.60;;
17852;SDS011;9052;53.494;14.376;2023-12-20T10:05:26;4.67;;;2.50;;
17852;SDS011;9052;53.494;14.376;2023-12-20T10:07:55;22.57;;;2.93;;
17852;SDS011;9052;53.494;14.376;2023-12-20T10:10:22;15.43;;;4.93;;
17852;SDS011;9052;53.494;14.376;2023-12-20T10:13:02;11.90;;;2.60;;
17852;SDS011;9052;53.494;14.376;2023-12-20T10:15:30;11.73;;;2.90;;
17852;SDS011;9052;53.494;14.376;2023-12-20T10:17:58;10.57;;;2.90;;
17852;SDS011;9052;53.494;14.376;2023-12-20T10:20:26;10.23;;;2.50;;
17852;SDS011;9052;53.494;14.376;2023-12-20T10:22:55;6.20;;;2.27;;
17852;SDS011;9052;53.494;14.376;2023-12-20T10:25:23;5.03;;;1.80;;
17852;SDS011;9052;53.494;14.376;2023-12-20T10:27:50;14.00;;;2.70;;
17852;SDS011;9052;53.494;14.376;2023-12-20T10:30:36;4.53;;;2.07;;
17852;SDS011;9052;53.494;14.376;2023-12-20T10:33:05;22.63;;;2.83;;
17852;SDS011;9052;53.494;14.376;2023-12-20T10:35:34;4.70;;;2.00;;
17852;SDS011;9052;53.494;14.376;2023-12-20T10:38:04;15.73;;;2.30;;
17852;SDS011;9052;53.494;14.376;2023-12-20T10:40:34;14.80;;;3.17;;
17852;SDS011;9052;53.494;14.376;2023-12-20T10:43:02;4.13;;;2.30;;
17852;SDS011;9052;53.494;14.376;2023-12-20T10:45:30;10.20;;;2.47;;
17852;SDS011;9052;53.494;14.376;2023-12-20T10:47:57;6.23;;;2.20;;
17852;SDS011;9052;53.494;14.376;2023-12-20T10:50:25;7.90;;;2.53;;
17852;SDS011;9052;53.494;14.376;2023-12-20T10:52:53;14.23;;;3.50;;
17852;SDS011;9052;53.494;14.376;2023-12-20T10:55:23;17.27;;;3.23;;
17852;SDS011;9052;53.494;14.376;2023-12-20T10:57:50;8.33;;;2.10;;
17852;SDS011;9052;53.494;14.376;2023-12-20T11:00:18;16.63;;;2.70;;
17852;SDS011;9052;53.494;14.376;2023-12-20T11:02:45;26.57;;;3.20;;
17852;SDS011;9052;53.494;14.376;2023-12-20T11:05:16;12.27;;;2.53;;
17852;SDS011;9052;53.494;14.376;2023-12-20T11:07:50;9.53;;;2.50;;
17852;SDS011;9052;53.494;14.376;2023-12-20T11:10:20;12.93;;;2.30;;
17852;SDS011;9052;53.494;14.376;2023-12-20T11:12:52;22.33;;;3.27;;
17852;SDS011;9052;53.494;14.376;2023-12-20T11:15:21;6.57;;;1.77;;
17852;SDS011;9052;53.494;14.376;2023-12-20T11:17:54;13.63;;;2.30;;
17852;SDS011;9052;53.494;14.376;2023-12-20T11:20:22;12.63;;;3.70;;
17852;SDS011;9052;53.494;14.376;2023-12-20T11:22:53;12.43;;;2.20;;
17852;SDS011;9052;53.494;14.376;2023-12-20T11:25:22;6.63;;;2.53;;
17852;SDS011;9052;53.494;14.376;2023-12-20T11:30:40;18.90;;;2.50;;
17852;SDS011;9052;53.494;14.376;2023-12-20T11:33:07;12.40;;;3.07;;
17852;SDS011;9052;53.494;14.376;2023-12-20T11:35:35;10.37;;;2.80;;
17852;SDS011;9052;53.494;14.376;2023-12-20T11:38:02;4.10;;;2.10;;
17852;SDS011;9052;53.494;14.376;2023-12-20T11:40:31;10.33;;;1.83;;
17852;SDS011;9052;53.494;14.376;2023-12-20T11:43:00;4.17;;;1.77;;
17852;SDS011;9052;53.494;14.376;2023-12-20T11:45:27;5.50;;;1.63;;
17852;SDS011;9052;53.494;14.376;2023-12-20T11:47:54;7.93;;;2.57;;
17852;SDS011;9052;53.494;14.376;2023-12-20T11:50:23;18.23;;;2.23;;
17852;SDS011;9052;53.494;14.376;2023-12-20T11:52:51;8.33;;;2.03;;
17852;SDS011;9052;53.494;14.376;2023-12-20T11:55:18;8.97;;;2.80;;
17852;SDS011;9052;53.494;14.376;2023-12-20T11:57:47;11.20;;;1.80;;
17852;SDS011;9052;53.494;14.376;2023-12-20T12:00:14;5.83;;;1.93;;
17852;SDS011;9052;53.494;14.376;2023-12-20T12:02:41;10.63;;;2.77;;
17852;SDS011;9052;53.494;14.376;2023-12-20T12:05:08;9.90;;;2.60;;
17852;SDS011;9052;53.494;14.376;2023-12-20T12:07:35;9.63;;;2.47;;
17852;SDS011;9052;53.494;14.376;2023-12-20T12:10:02;11.80;;;1.90;;
17852;SDS011;9052;53.494;14.376;2023-12-20T12:12:30;17.80;;;2.93;;
17852;SDS011;9052;53.494;14.376;2023-12-20T12:14:59;15.50;;;2.63;;
17852;SDS011;9052;53.494;14.376;2023-12-20T12:17:26;13.20;;;2.77;;
17852;SDS011;9052;53.494;14.376;2023-12-20T12:20:01;13.13;;;3.07;;
17852;SDS011;9052;53.494;14.376;2023-12-20T12:22:29;22.17;;;2.97;;
17852;SDS011;9052;53.494;14.376;2023-12-20T12:24:58;11.40;;;2.63;;
17852;SDS011;9052;53.494;14.376;2023-12-20T12:27:27;8.00;;;2.00;;
17852;SDS011;9052;53.494;14.376;2023-12-20T12:30:01;11.37;;;3.00;;
17852;SDS011;9052;53.494;14.376;2023-12-20T12:32:29;13.90;;;3.63;;
17852;SDS011;9052;53.494;14.376;2023-12-20T12:34:57;5.80;;;2.60;;
17852;SDS011;9052;53.494;14.376;2023-12-20T12:37:24;6.40;;;2.00;;
17852;SDS011;9052;53.494;14.376;2023-12-20T12:39:53;16.93;;;2.63;;
17852;SDS011;9052;53.494;14.376;2023-12-20T12:42:20;11.10;;;1.80;;
17852;SDS011;9052;53.494;14.376;2023-12-20T12:44:50;1.60;;;1.33;;
17852;SDS011;9052;53.494;14.376;2023-12-20T12:47:19;11.33;;;1.80;;
17852;SDS011;9052;53.494;14.376;2023-12-20T12:49:46;7.00;;;2.50;;
17852;SDS011;9052;53.494;14.376;2023-12-20T12:52:13;18.80;;;3.03;;
17852;SDS011;9052;53.494;14.376;2023-12-20T12:54:40;7.83;;;1.53;;
17852;SDS011;9052;53.494;14.376;2023-12-20T12:57:10;2.77;;;1.53;;
17852;SDS011;9052;53.494;14.376;2023-12-20T12:59:37;7.90;;;1.70;;
17852;SDS011;9052;53.494;14.376;2023-12-20T13:02:04;14.70;;;1.90;;
17852;SDS011;9052;53.494;14.376;2023-12-20T13:04:33;7.10;;;1.73;;
17852;SDS011;9052;53.494;14.376;2023-12-20T13:07:00;10.73;;;1.60;;
17852;SDS011;9052;53.494;14.376;2023-12-20T13:09:27;5.37;;;1.83;;
17852;SDS011;9052;53.494;14.376;2023-12-20T13:11:54;7.80;;;1.63;;
17852;SDS011;9052;53.494;14.376;2023-12-20T13:14:21;13.93;;;2.10;;
17852;SDS011;9052;53.494;14.376;2023-12-20T13:16:49;9.60;;;1.30;;
17852;SDS011;9052;53.494;14.376;2023-12-20T13:19:16;5.47;;;1.77;;
17852;SDS011;9052;53.494;14.376;2023-12-20T13:21:45;3.00;;;1.30;;
17852;SDS011;9052;53.494;14.376;2023-12-20T13:24:13;1.90;;;1.17;;
17852;SDS011;9052;53.494;14.376;2023-12-20T13:26:40;2.73;;;0.77;;
17852;SDS011;9052;53.494;14.376;2023-12-20T13:29:06;5.60;;;0.90;;
17852;SDS011;9052;53.494;14.376;2023-12-20T13:31:33;4.17;;;0.80;;
17852;SDS011;9052;53.494;14.376;2023-12-20T13:34:01;3.03;;;1.43;;
17852;SDS011;9052;53.494;14.376;2023-12-20T13:36:28;2.50;;;1.40;;
17852;SDS011;9052;53.494;14.376;2023-12-20T13:38:57;3.00;;;0.70;;
17852;SDS011;9052;53.494;14.376;2023-12-20T13:41:24;0.87;;;0.87;;
17852;SDS011;9052;53.494;14.376;2023-12-20T13:43:54;1.83;;;0.87;;
17852;SDS011;9052;53.494;14.376;2023-12-20T13:46:21;3.60;;;1.00;;
17852;SDS011;9052;53.494;14.376;2023-12-20T13:48:49;2.70;;;0.93;;
17852;SDS011;9052;53.494;14.376;2023-12-20T13:51:18;3.60;;;0.60;;
17852;SDS011;9052;53.494;14.376;2023-12-20T13:53:46;1.80;;;0.63;;
17852;SDS011;9052;53.494;14.376;2023-12-20T13:56:17;3.03;;;0.87;;
17852;SDS011;9052;53.494;14.376;2023-12-20T13:58:45;4.03;;;1.20;;
17852;SDS011;9052;53.494;14.376;2023-12-20T14:01:12;2.60;;;0.80;;
17852;SDS011;9052;53.494;14.376;2023-12-20T14:03:40;4.70;;;1.07;;
17852;SDS011;9052;53.494;14.376;2023-12-20T14:06:07;2.83;;;0.70;;
17852;SDS011;9052;53.494;14.376;2023-12-20T14:08:36;3.23;;;1.13;;
17852;SDS011;9052;53.494;14.376;2023-12-20T14:11:03;1.00;;;0.90;;
17852;SDS011;9052;53.494;14.376;2023-12-20T14:13:32;10.33;;;1.00;;
17852;SDS011;9052;53.494;14.376;2023-12-20T14:16:01;6.23;;;1.00;;
17852;SDS011;9052;53.494;14.376;2023-12-20T14:18:30;2.13;;;1.30;;
17852;SDS011;9052;53.494;14.376;2023-12-20T14:20:57;0.90;;;0.70;;
17852;SDS011;9052;53.494;14.376;2023-12-20T14:23:24;0.90;;;0.63;;
17852;SDS011;9052;53.494;14.376;2023-12-20T14:25:52;0.70;;;0.60;;
17852;SDS011;9052;53.494;14.376;2023-12-20T14:28:21;2.70;;;1.53;;
17852;SDS011;9052;53.494;14.376;2023-12-20T14:30:51;0.87;;;0.80;;
17852;SDS011;9052;53.494;14.376;2023-12-20T14:33:18;3.93;;;0.90;;
17852;SDS011;9052;53.494;14.376;2023-12-20T14:35:46;2.30;;;0.57;;
17852;SDS011;9052;53.494;14.376;2023-12-20T14:38:17;1.37;;;0.70;;
17852;SDS011;9052;53.494;14.376;2023-12-20T14:40:44;3.67;;;0.83;;
17852;SDS011;9052;53.494;14.376;2023-12-20T14:43:11;1.10;;;0.70;;
17852;SDS011;9052;53.494;14.376;2023-12-20T14:45:38;1.50;;;0.50;;